createdAt,value
2019-02-27T11:18:38.714Z,21.47
2019-02-27T11:19:38.731Z,18.04
2019-02-27T11:21:32.900Z,16.92
2019-02-27T11:22:32.913Z,17.25
2019-02-27T11:23:32.941Z,15.15
2019-02-27T11:24:32.962Z,13.90
2019-02-27T11:25:33.030Z,13.53
2019-02-27T11:26:33.886Z,13.03
2019-02-27T11:27:33.091Z,14.35
2019-02-27T11:28:33.114Z,16.27
2019-02-27T11:29:33.125Z,17.80
2019-02-27T11:30:35.818Z,16.69
2019-02-27T11:31:33.197Z,15.06
2019-02-27T11:32:33.228Z,13.02
2019-02-27T11:33:33.548Z,11.94
2019-02-27T11:34:33.291Z,12.45
2019-02-27T11:35:33.328Z,12.25
2019-02-27T11:36:34.907Z,12.76
2019-02-27T11:37:33.421Z,10.81
2019-02-27T11:38:33.418Z,10.71
2019-02-27T11:39:33.491Z,10.52
2019-02-27T11:40:33.490Z,10.42
2019-02-27T11:41:33.515Z,10.81
2019-02-27T11:42:33.568Z,10.70
2019-02-27T11:43:33.593Z,10.88
2019-02-27T11:44:33.655Z,11.66
2019-02-27T11:45:33.661Z,12.71
2019-02-27T11:46:35.163Z,14.25
2019-02-27T11:47:33.724Z,14.54
2019-02-27T11:48:33.759Z,13.04
2019-02-27T11:49:36.257Z,11.94
2019-02-27T11:50:33.835Z,11.76
2019-02-27T11:51:33.871Z,11.94
2019-02-27T11:52:33.903Z,12.04
2019-02-27T11:53:35.854Z,11.85
2019-02-27T11:54:33.973Z,11.46
2019-02-27T11:55:33.998Z,11.65
2019-02-27T11:56:34.030Z,12.60
2019-02-27T11:57:34.066Z,13.55
2019-02-27T11:58:38.091Z,14.72
2019-02-27T11:59:34.138Z,15.23
2019-02-27T12:00:34.168Z,13.97
2019-02-27T12:01:34.191Z,13.96
2019-02-27T12:02:37.848Z,14.82
2019-02-27T12:03:34.256Z,15.41
2019-02-27T12:04:34.294Z,15.53
2019-02-27T12:05:34.584Z,14.17
2019-02-27T12:06:34.356Z,13.97
2019-02-27T12:07:34.389Z,14.72
2019-02-27T12:08:34.424Z,15.70
2019-02-27T12:09:35.193Z,16.55
2019-02-27T12:10:34.469Z,18.27
2019-02-27T12:11:34.493Z,20.28
2019-02-27T12:12:34.523Z,20.73
2019-02-27T12:13:34.846Z,21.80
2019-02-27T12:14:34.575Z,22.26
2019-02-27T12:15:34.668Z,23.96
2019-02-27T12:16:34.642Z,24.56
2019-02-27T12:17:34.659Z,24.55
2019-02-27T12:18:35.204Z,25.20
2019-02-27T12:19:34.719Z,25.49
2019-02-27T12:20:34.753Z,25.58
2019-02-27T12:21:34.779Z,26.07
2019-02-27T12:22:35.258Z,26.45
2019-02-27T12:23:34.838Z,26.25
2019-02-27T12:24:34.853Z,27.10
2019-02-27T12:25:34.883Z,27.39
2019-02-27T12:26:37.495Z,28.15
2019-02-27T12:27:48.450Z,28.23
2019-02-27T12:28:34.956Z,28.92
2019-02-27T12:29:34.980Z,29.02
2019-02-27T12:30:37.494Z,28.92
2019-02-27T12:31:35.034Z,28.36
2019-02-27T12:32:35.059Z,28.94
2019-02-27T12:33:35.093Z,28.36
2019-02-27T12:34:37.058Z,28.25
2019-02-27T12:35:35.146Z,29.19
2019-02-27T12:36:35.168Z,29.88
2019-02-27T12:37:35.216Z,29.28
2019-02-27T12:38:35.219Z,30.05
2019-02-27T12:39:35.248Z,30.63
2019-02-27T12:40:35.258Z,30.80
2019-02-27T12:41:35.286Z,31.48
2019-02-27T12:42:37.381Z,31.88
2019-02-27T12:43:35.340Z,31.41
2019-02-27T12:44:35.423Z,30.83
2019-02-27T12:45:35.453Z,31.12
2019-02-27T12:46:36.996Z,31.68
2019-02-27T12:47:37.617Z,31.68
2019-02-27T12:48:35.466Z,31.70
2019-02-27T12:49:35.491Z,31.51
2019-02-27T12:50:35.524Z,31.49
2019-02-27T12:51:38.283Z,32.07
2019-02-27T12:52:35.570Z,31.99
2019-02-27T12:53:35.589Z,31.60
2019-02-27T12:54:35.649Z,31.40
2019-02-27T12:55:36.425Z,31.20
2019-02-27T12:56:35.666Z,31.12
2019-02-27T12:57:35.691Z,31.01
2019-02-27T12:58:35.725Z,31.01
2019-02-27T12:59:35.739Z,31.22
2019-02-27T13:00:35.773Z,31.49
2019-02-27T13:01:35.925Z,31.22
2019-02-27T13:02:35.998Z,30.63
2019-02-27T13:03:35.842Z,31.02
2019-02-27T13:04:35.869Z,30.82
2019-02-27T13:05:35.893Z,31.01
2019-02-27T13:06:37.354Z,31.12
2019-02-27T13:07:35.942Z,31.51
2019-02-27T13:08:35.970Z,31.99
2019-02-27T13:09:35.994Z,32.09
2019-02-27T13:10:36.011Z,31.80
2019-02-27T13:11:36.100Z,31.86
2019-02-27T13:12:37.287Z,31.88
2019-02-27T13:13:36.085Z,31.98
2019-02-27T13:14:36.121Z,32.17
2019-02-27T13:15:38.330Z,32.75
2019-02-27T13:16:36.166Z,32.65
2019-02-27T13:17:36.202Z,31.89
2019-02-27T13:18:36.214Z,31.68
2019-02-27T13:19:38.517Z,32.46
2019-02-27T13:20:36.257Z,32.46
2019-02-27T13:21:36.282Z,31.98
2019-02-27T13:23:38.961Z,32.24
2019-02-27T13:24:36.357Z,32.81
2019-02-27T13:25:36.387Z,32.44
2019-02-27T13:26:36.411Z,32.34
2019-02-27T13:27:36.441Z,31.67
2019-02-27T13:28:36.452Z,32.06
2019-02-27T13:29:36.481Z,32.54
2019-02-27T13:30:41.250Z,32.44
2019-02-27T13:31:36.528Z,32.15
2019-02-27T13:32:36.581Z,31.86
2019-02-27T13:33:38.749Z,31.67
2019-02-27T13:34:36.608Z,32.17
2019-02-27T13:35:36.634Z,31.48
2019-02-27T13:36:36.650Z,31.49
2019-02-27T13:37:36.674Z,30.90
2019-02-27T13:38:37.045Z,31.86
2019-02-27T13:39:36.730Z,31.96
2019-02-27T13:40:36.800Z,32.06
2019-02-27T13:41:36.775Z,31.48
2019-02-27T13:42:36.801Z,31.40
2019-02-27T13:43:36.823Z,30.33
2019-02-27T13:44:38.768Z,28.98
2019-02-27T13:45:36.868Z,28.98
2019-02-27T13:46:36.908Z,29.85
2019-02-27T13:47:36.927Z,29.85
2019-02-27T13:48:37.363Z,30.72
2019-02-27T13:49:36.973Z,30.91
2019-02-27T13:50:37.032Z,29.56
2019-02-27T13:51:40.062Z,29.17
2019-02-27T13:52:37.048Z,29.08
2019-02-27T13:53:37.072Z,28.98
2019-02-27T13:54:38.164Z,29.16
2019-02-27T13:55:37.121Z,29.83
2019-02-27T13:56:37.140Z,30.03
2019-02-27T13:57:37.292Z,28.97
2019-02-27T13:58:37.198Z,28.19
2019-02-27T13:59:37.274Z,28.02
2019-02-27T14:00:37.316Z,28.98
2019-02-27T14:01:37.272Z,28.20
2019-02-27T14:02:39.439Z,28.30
2019-02-27T14:03:37.324Z,28.88
2019-02-27T14:04:37.345Z,28.98
2019-02-27T14:05:37.374Z,28.20
2019-02-27T14:06:42.286Z,28.50
2019-02-27T14:07:37.425Z,28.98
2019-02-27T14:08:37.454Z,29.36
2019-02-27T14:09:39.091Z,28.50
2019-02-27T14:10:37.500Z,28.40
2019-02-27T14:11:37.530Z,28.30
2019-02-27T14:12:37.554Z,28.78
2019-02-27T14:13:37.584Z,28.30
2019-02-27T14:14:37.598Z,28.30
2019-02-27T14:15:37.623Z,29.17
2019-02-27T14:16:37.652Z,28.78
2019-02-27T14:17:41.381Z,28.78
2019-02-27T14:18:37.796Z,27.82
2019-02-27T14:19:37.738Z,27.34
2019-02-27T14:20:37.752Z,27.71
2019-02-27T14:21:39.627Z,28.02
2019-02-27T14:22:40.396Z,27.81
2019-02-27T14:23:37.837Z,27.91
2019-02-27T14:24:38.320Z,28.29
2019-02-27T14:25:37.887Z,27.72
2019-02-27T14:26:38.269Z,26.86
2019-02-27T14:27:37.947Z,26.84
2019-02-27T14:28:37.963Z,26.93
2019-02-27T14:29:37.994Z,27.03
2019-02-27T14:30:38.024Z,27.62
2019-02-27T14:31:40.067Z,26.93
2019-02-27T14:32:38.076Z,27.71
2019-02-27T14:33:38.094Z,27.71
2019-02-27T14:34:38.118Z,26.95
2019-02-27T14:35:38.157Z,27.04
2019-02-27T14:36:39.369Z,27.42
2019-02-27T14:37:38.201Z,26.95
2019-02-27T14:38:38.241Z,26.86
2019-02-27T14:39:38.249Z,26.55
2019-02-27T14:40:41.112Z,26.75
2019-02-27T14:41:38.299Z,27.33
2019-02-27T14:42:38.330Z,26.75
2019-02-27T14:43:38.384Z,26.66
2019-02-27T14:44:38.408Z,26.35
2019-02-27T14:45:40.620Z,26.84
2019-02-27T14:46:38.452Z,26.84
2019-02-27T14:47:38.462Z,26.55
2019-02-27T14:48:38.486Z,26.65
2019-02-27T14:49:38.519Z,26.35
2019-02-27T14:50:38.540Z,26.45
2019-02-27T14:51:41.172Z,26.75
2019-02-27T14:52:38.588Z,26.45
2019-02-27T14:53:38.645Z,26.45
2019-02-27T14:54:38.645Z,26.34
2019-02-27T14:55:38.665Z,26.44
2019-02-27T14:56:41.677Z,26.54
2019-02-27T14:57:38.726Z,26.73
2019-02-27T14:58:38.748Z,26.54
2019-02-27T14:59:38.778Z,26.54
2019-02-27T15:00:40.962Z,26.82
2019-02-27T15:01:38.821Z,26.53
2019-02-27T15:02:38.854Z,26.91
2019-02-27T15:03:38.873Z,27.01
2019-02-27T15:04:38.917Z,26.91
2019-02-27T15:05:43.165Z,26.62
2019-02-27T15:06:38.949Z,27.01
2019-02-27T15:07:39.013Z,27.00
2019-02-27T15:08:39.000Z,26.90
2019-02-27T15:09:47.668Z,27.00
2019-02-27T15:10:41.130Z,27.00
2019-02-27T15:11:39.071Z,27.38
2019-02-27T15:12:39.109Z,27.38
2019-02-27T15:13:39.118Z,27.09
2019-02-27T15:14:39.145Z,27.09
2019-02-27T15:15:43.147Z,27.48
2019-02-27T15:16:39.197Z,27.67
2019-02-27T15:17:39.223Z,27.67
2019-02-27T15:18:39.247Z,27.75
2019-02-27T15:19:39.266Z,27.94
2019-02-27T15:20:41.084Z,27.66
2019-02-27T15:21:39.308Z,27.56
2019-02-27T15:22:39.353Z,27.46
2019-02-27T15:23:39.373Z,27.56
2019-02-27T15:24:39.387Z,27.75
2019-02-27T15:25:43.218Z,28.33
2019-02-27T15:26:45.228Z,28.23
2019-02-27T15:27:39.462Z,27.85
2019-02-27T15:28:39.488Z,28.04
2019-02-27T15:29:40.294Z,27.94
2019-02-27T15:30:39.532Z,27.75
2019-02-27T15:31:39.548Z,27.83
2019-02-27T15:32:39.578Z,27.83
2019-02-27T15:33:39.593Z,27.64
2019-02-27T15:34:39.618Z,27.64
2019-02-27T15:35:39.645Z,28.13
2019-02-27T15:36:39.663Z,27.83
2019-02-27T15:37:39.701Z,27.64
2019-02-27T15:38:39.717Z,26.97
2019-02-27T15:39:39.813Z,27.83
2019-02-27T15:40:39.765Z,27.64
2019-02-27T15:41:39.785Z,27.55
2019-02-27T15:42:40.117Z,26.68
2019-02-27T15:43:39.839Z,26.97
2019-02-27T15:44:39.852Z,27.16
2019-02-27T15:45:47.221Z,27.64
2019-02-27T15:47:39.945Z,28.03
2019-02-27T15:48:40.883Z,27.72
2019-02-27T15:49:39.984Z,28.20
2019-02-27T15:50:40.002Z,28.02
2019-02-27T15:52:40.646Z,29.07
2019-02-27T15:53:40.082Z,29.55
2019-02-27T15:54:40.092Z,29.07
2019-02-27T15:55:40.116Z,28.97
2019-02-27T15:56:41.983Z,28.49
2019-02-27T15:57:40.165Z,28.78
2019-02-27T15:58:40.199Z,29.84
2019-02-27T15:59:41.722Z,29.17
2019-02-27T16:00:40.239Z,28.78
2019-02-27T16:01:40.271Z,28.88
2019-02-27T16:02:40.287Z,30.32
2019-02-27T16:03:42.102Z,30.71
2019-02-27T16:04:40.335Z,31.37
2019-02-27T16:06:40.654Z,29.35
2019-02-27T16:07:40.398Z,30.69
2019-02-27T16:08:40.528Z,29.93
2019-02-27T16:09:40.438Z,29.83
2019-02-27T16:10:43.778Z,30.21
2019-02-27T16:11:40.487Z,30.60
2019-02-27T16:12:40.505Z,30.21
2019-02-27T16:13:40.534Z,29.63
2019-02-27T16:14:42.875Z,29.63
2019-02-27T16:15:40.584Z,30.50
2019-02-27T16:16:40.626Z,31.56
2019-02-27T16:17:40.632Z,31.75
2019-02-27T16:18:40.709Z,31.75
2019-02-27T16:19:42.136Z,31.56
2019-02-27T16:20:40.692Z,30.87
2019-02-27T16:21:40.719Z,32.03
2019-02-27T16:22:40.744Z,31.83
2019-02-27T16:23:40.775Z,31.74
2019-02-27T16:24:43.746Z,32.12
2019-02-27T16:25:40.820Z,32.60
2019-02-27T16:26:40.832Z,32.31
2019-02-27T16:27:40.864Z,32.98
2019-02-27T16:28:40.902Z,33.75
2019-02-27T16:29:40.901Z,33.85
2019-02-27T16:30:40.958Z,33.08
2019-02-27T16:31:41.015Z,34.23
2019-02-27T16:32:40.971Z,34.33
2019-02-27T16:33:41.000Z,34.03
2019-02-27T16:34:41.013Z,33.54
2019-02-27T16:35:41.943Z,35.08
2019-02-27T16:36:41.071Z,35.08
2019-02-27T16:37:41.103Z,34.31
2019-02-27T16:38:41.353Z,35.18
2019-02-27T16:39:42.305Z,34.12
2019-02-27T16:40:41.153Z,33.45
2019-02-27T16:41:41.178Z,34.61
2019-02-27T16:42:41.211Z,36.05
2019-02-27T16:43:41.233Z,36.43
2019-02-27T16:44:41.246Z,36.22
2019-02-27T16:45:41.282Z,36.13
2019-02-27T16:46:44.704Z,36.32
2019-02-27T16:47:41.447Z,36.60
2019-02-27T16:48:41.350Z,36.99
2019-02-27T16:49:41.368Z,36.22
2019-02-27T16:50:41.396Z,36.22
2019-02-27T16:51:41.404Z,37.57
2019-02-27T16:52:42.163Z,37.37
2019-02-27T16:53:41.460Z,37.27
2019-02-27T16:54:41.472Z,37.27
2019-02-27T16:55:41.493Z,37.27
2019-02-27T16:56:46.500Z,37.84
2019-02-27T16:57:41.549Z,37.84
2019-02-27T16:58:41.561Z,37.74
2019-02-27T16:59:42.277Z,37.93
2019-02-27T17:00:41.603Z,37.93
2019-02-27T17:01:41.634Z,38.22
2019-02-27T17:02:41.667Z,38.12
2019-02-27T17:03:41.673Z,38.51
2019-02-27T17:04:42.792Z,38.96
2019-02-27T17:05:43.041Z,39.37
2019-02-27T17:06:41.740Z,39.56
2019-02-27T17:07:41.789Z,39.08
2019-02-27T17:08:41.785Z,39.26
2019-02-27T17:09:43.845Z,39.06
2019-02-27T17:10:41.832Z,38.78
2019-02-27T17:11:41.873Z,38.78
2019-02-27T17:12:41.872Z,38.68
2019-02-27T17:13:41.905Z,38.49
2019-02-27T17:14:42.058Z,38.78
2019-02-27T17:15:41.946Z,38.96
2019-02-27T17:16:44.349Z,38.59
2019-02-27T17:17:41.981Z,38.68
2019-02-27T17:18:42.001Z,39.23
2019-02-27T17:19:42.038Z,39.62
2019-02-27T17:20:46.055Z,39.23
2019-02-27T17:21:42.081Z,39.72
2019-02-27T17:22:42.089Z,40.48
2019-02-27T17:23:44.440Z,40.96
2019-02-27T17:24:42.181Z,40.77
2019-02-27T17:25:42.164Z,40.77
2019-02-27T17:26:42.174Z,40.77
2019-02-27T17:27:42.212Z,40.77
2019-02-27T17:28:42.217Z,40.87
2019-02-27T17:29:42.250Z,41.16
2019-02-27T17:30:42.272Z,41.16
2019-02-27T17:31:48.984Z,41.13
2019-02-27T17:32:42.320Z,41.52
2019-02-27T17:33:42.338Z,41.04
2019-02-27T17:34:42.392Z,41.13
2019-02-27T17:35:42.385Z,41.04
2019-02-27T17:36:42.404Z,41.04
2019-02-27T17:37:42.423Z,41.33
2019-02-27T17:38:45.291Z,41.80
2019-02-27T17:39:42.482Z,41.80
2019-02-27T17:40:42.480Z,41.04
2019-02-27T17:41:44.730Z,41.23
2019-02-27T17:42:42.528Z,41.13
2019-02-27T17:43:42.571Z,41.61
2019-02-27T17:44:42.569Z,41.78
2019-02-27T17:45:44.277Z,41.78
2019-02-27T17:46:42.616Z,42.07
2019-02-27T17:47:42.634Z,42.07
2019-02-27T17:48:43.302Z,41.97
2019-02-27T17:49:42.694Z,42.27
2019-02-27T17:50:42.706Z,42.10
2019-02-27T17:51:42.716Z,41.97
2019-02-27T17:52:42.752Z,41.88
2019-02-27T17:53:42.766Z,42.46
2019-02-27T17:54:42.789Z,42.65
2019-02-27T17:55:42.811Z,42.74
2019-02-27T17:56:42.917Z,42.55
2019-02-27T17:57:42.852Z,42.94
2019-02-27T17:58:42.878Z,42.74
2019-02-27T17:59:43.043Z,42.36
2019-02-27T18:00:42.919Z,42.36
2019-02-27T18:01:42.933Z,42.36
2019-02-27T18:02:42.950Z,42.46
2019-02-27T18:03:42.970Z,42.84
2019-02-27T18:04:45.651Z,43.01
2019-02-27T18:05:43.016Z,43.23
2019-02-27T18:06:43.043Z,43.03
2019-02-27T18:07:43.496Z,43.39
2019-02-27T18:08:43.083Z,43.60
2019-02-27T18:09:43.112Z,43.49
2019-02-27T18:10:43.125Z,43.59
2019-02-27T18:11:43.145Z,43.87
2019-02-27T18:12:43.163Z,44.16
2019-02-27T18:13:43.329Z,43.59
2019-02-27T18:14:45.454Z,43.68
2019-02-27T18:15:43.225Z,43.10
2019-02-27T18:16:43.265Z,42.72
2019-02-27T18:17:43.277Z,43.20
2019-02-27T18:18:43.993Z,43.39
2019-02-27T18:19:43.311Z,43.68
2019-02-27T18:20:43.336Z,43.20
2019-02-27T18:21:43.352Z,43.20
2019-02-27T18:22:45.853Z,43.59
2019-02-27T18:23:43.429Z,43.68
2019-02-27T18:24:43.414Z,43.30
2019-02-27T18:25:43.442Z,43.30
2019-02-27T18:26:43.476Z,43.66
2019-02-27T18:27:43.504Z,43.95
2019-02-27T18:28:43.492Z,44.13
2019-02-27T18:29:44.388Z,44.52
2019-02-27T18:30:43.547Z,44.04
2019-02-27T18:31:43.563Z,44.71
2019-02-27T18:32:43.579Z,44.90
2019-02-27T18:33:43.623Z,45.09
2019-02-27T18:35:43.678Z,44.90
2019-02-27T18:36:46.498Z,45.19
2019-02-27T18:37:43.680Z,45.57
2019-02-27T18:38:43.702Z,45.29
2019-02-27T18:39:43.739Z,45.38
2019-02-27T18:40:43.761Z,45.48
2019-02-27T18:41:45.681Z,45.00
2019-02-27T18:42:43.796Z,45.96
2019-02-27T18:43:43.819Z,46.34
2019-02-27T18:44:43.838Z,46.22
2019-02-27T18:45:43.876Z,45.29
2019-02-27T18:46:43.878Z,45.48
2019-02-27T18:47:43.894Z,45.38
2019-02-27T18:48:44.468Z,44.81
2019-02-27T18:49:43.934Z,45.19
2019-02-27T18:50:43.957Z,44.62
2019-02-27T18:51:43.986Z,45.57
2019-02-27T18:52:43.998Z,46.25
2019-02-27T18:54:44.066Z,46.03
2019-02-27T18:55:44.260Z,45.07
2019-02-27T18:56:44.126Z,46.03
2019-02-27T18:57:47.129Z,45.94
2019-02-27T18:58:44.164Z,46.03
2019-02-27T18:59:44.226Z,46.80
2019-02-27T19:01:09.532Z,46.12
2019-02-27T19:01:45.240Z,46.12
2019-02-27T19:02:44.288Z,46.41
2019-02-27T19:03:44.265Z,46.89
2019-02-27T19:05:44.258Z,47.47
2019-02-27T19:06:46.258Z,47.37
2019-02-27T19:07:44.304Z,47.66
2019-02-27T19:08:44.320Z,47.37
2019-02-27T19:09:44.347Z,47.08
2019-02-27T19:10:44.367Z,46.80
2019-02-27T19:11:44.377Z,47.08
2019-02-27T19:12:44.406Z,47.66
2019-02-27T19:13:44.424Z,47.66
2019-02-27T19:14:44.447Z,47.37
2019-02-27T19:15:46.234Z,47.37
2019-02-27T19:16:44.487Z,47.47
2019-02-27T19:17:44.509Z,47.63
2019-02-27T19:18:44.516Z,48.11
2019-02-27T19:19:48.131Z,48.30
2019-02-27T19:20:44.586Z,48.30
2019-02-27T19:21:44.597Z,48.21
2019-02-27T19:22:44.609Z,48.49
2019-02-27T19:23:44.626Z,48.59
2019-02-27T19:24:44.649Z,48.39
2019-02-27T19:25:44.669Z,48.59
2019-02-27T19:26:45.062Z,49.33
2019-02-27T19:27:44.719Z,49.74
2019-02-27T19:28:44.723Z,49.33
2019-02-27T19:29:44.765Z,49.52
2019-02-27T19:30:44.776Z,48.75
2019-02-27T19:31:44.798Z,47.34
2019-02-27T19:32:44.818Z,46.67
2019-02-27T19:33:44.835Z,46.20
2019-02-27T19:34:47.956Z,46.03
2019-02-27T19:35:44.890Z,45.81
2019-02-27T19:37:44.911Z,45.84
2019-02-27T19:38:47.531Z,46.51
2019-02-27T19:39:44.952Z,46.89
2019-02-27T19:40:44.970Z,47.37
2019-02-27T19:41:44.982Z,47.37
2019-02-27T19:42:46.826Z,47.34
2019-02-27T19:43:45.021Z,47.63
2019-02-27T19:44:45.048Z,48.02
2019-02-27T19:45:45.067Z,48.59
2019-02-27T19:46:47.492Z,48.88
2019-02-27T19:47:45.103Z,48.97
2019-02-27T19:48:45.222Z,49.26
2019-02-27T19:49:45.155Z,48.68
2019-02-27T19:50:46.257Z,49.07
2019-02-27T19:51:45.195Z,49.26
2019-02-27T19:52:45.202Z,48.66
2019-02-27T19:53:45.228Z,48.97
2019-02-27T19:54:45.269Z,49.52
2019-02-27T19:55:45.293Z,49.52
2019-02-27T19:56:45.300Z,49.71
2019-02-27T19:57:45.300Z,49.62
2019-02-27T19:58:45.333Z,49.43
2019-02-27T19:59:45.351Z,49.33
2019-02-27T20:00:48.491Z,49.43
2019-02-27T20:01:49.032Z,49.62
2019-02-27T20:02:45.413Z,50.00
2019-02-27T20:03:45.442Z,50.29
2019-02-27T20:04:46.044Z,50.38
2019-02-27T20:05:45.460Z,50.64
2019-02-27T20:06:45.485Z,50.57
2019-02-27T20:07:45.506Z,50.38
2019-02-27T20:08:45.666Z,50.67
2019-02-27T20:09:45.542Z,51.15
2019-02-27T20:10:45.569Z,50.84
2019-02-27T20:11:45.581Z,50.76
2019-02-27T20:12:47.750Z,51.03
2019-02-27T20:13:45.619Z,51.50
2019-02-27T20:14:45.649Z,51.41
2019-02-27T20:15:46.519Z,51.43
2019-02-27T20:16:45.688Z,51.31
2019-02-27T20:17:45.715Z,51.15
2019-02-27T20:18:54.581Z,51.12
2019-02-27T20:19:45.799Z,50.35
2019-02-27T20:20:45.780Z,50.74
2019-02-27T20:21:45.791Z,50.74
2019-02-27T20:22:45.806Z,51.31
2019-02-27T20:23:45.821Z,51.12
2019-02-27T20:24:45.838Z,51.05
2019-02-27T20:25:45.916Z,51.43
2019-02-27T20:26:45.878Z,51.43
2019-02-27T20:27:45.906Z,51.24
2019-02-27T20:28:45.934Z,50.57
2019-02-27T20:29:45.933Z,50.48
2019-02-27T20:30:45.970Z,49.71
2019-02-27T20:31:45.984Z,49.52
2019-02-27T20:32:46.009Z,49.43
2019-02-27T20:33:46.029Z,49.80
2019-02-27T20:34:46.641Z,50.57
2019-02-27T20:35:46.077Z,50.84
2019-02-27T20:36:46.083Z,51.41
2019-02-27T20:37:46.090Z,50.93
2019-02-27T20:38:47.455Z,51.21
2019-02-27T20:39:46.136Z,51.98
2019-02-27T20:40:46.153Z,52.26
2019-02-27T20:41:46.184Z,51.60
2019-02-27T20:42:50.029Z,52.08
2019-02-27T20:43:46.224Z,51.98
2019-02-27T20:44:46.246Z,51.79
2019-02-27T20:45:46.253Z,51.98
2019-02-27T20:46:49.202Z,52.65
2019-02-27T20:47:46.314Z,52.46
2019-02-27T20:48:46.315Z,52.36
2019-02-27T20:49:47.875Z,52.26
2019-02-27T20:50:46.349Z,52.55
2019-02-27T20:51:46.391Z,52.46
2019-02-27T20:52:49.127Z,51.79
2019-02-27T20:53:46.410Z,51.79
2019-02-27T20:54:46.501Z,52.08
2019-02-27T20:55:46.465Z,52.46
2019-02-27T20:56:55.164Z,52.72
2019-02-27T20:57:46.484Z,52.81
2019-02-27T20:58:51.103Z,52.91
2019-02-27T20:59:46.529Z,52.81
2019-02-27T21:00:46.540Z,52.72
2019-02-27T21:01:47.326Z,53.00
2019-02-27T21:02:46.597Z,52.72
2019-02-27T21:03:46.608Z,52.91
2019-02-27T21:04:46.650Z,53.00
2019-02-27T21:05:48.529Z,53.39
2019-02-27T21:06:47.721Z,53.67
2019-02-27T21:07:46.677Z,53.20
2019-02-27T21:08:46.700Z,53.20
2019-02-27T21:09:46.742Z,53.29
2019-02-27T21:10:46.748Z,53.58
2019-02-27T21:11:46.761Z,53.39
2019-02-27T21:12:54.094Z,53.58
2019-02-27T21:13:49.311Z,53.39
2019-02-27T21:14:46.827Z,53.39
2019-02-27T21:15:46.832Z,53.67
2019-02-27T21:16:46.843Z,54.06
2019-02-27T21:17:46.874Z,53.96
2019-02-27T21:18:46.890Z,53.93
2019-02-27T21:19:46.925Z,53.86
2019-02-27T21:20:46.924Z,54.15
2019-02-27T21:21:46.948Z,54.22
2019-02-27T21:22:46.965Z,54.44
2019-02-27T21:23:46.980Z,53.86
2019-02-27T21:24:46.995Z,54.13
2019-02-27T21:25:49.298Z,54.99
2019-02-27T21:26:47.047Z,54.50
2019-02-27T21:28:57.747Z,54.79
2019-02-27T21:29:47.101Z,54.99
2019-02-27T21:30:51.854Z,54.99
2019-02-27T21:31:47.223Z,54.70
2019-02-27T21:32:47.149Z,54.41
2019-02-27T21:33:47.178Z,54.03
2019-02-27T21:34:47.196Z,54.22
2019-02-27T21:35:47.215Z,54.60
2019-02-27T21:36:47.236Z,54.70
2019-02-27T21:37:47.245Z,54.89
2019-02-27T21:38:50.260Z,55.27
2019-02-27T21:39:47.290Z,55.08
2019-02-27T21:40:47.303Z,55.36
2019-02-27T21:42:50.766Z,55.36
2019-02-27T21:43:47.376Z,55.46
2019-02-27T21:44:47.393Z,55.75
2019-02-27T21:45:47.406Z,56.23
2019-02-27T21:46:47.536Z,56.20
2019-02-27T21:47:51.323Z,56.87
2019-02-27T21:48:47.469Z,56.32
2019-02-27T21:49:47.475Z,55.94
2019-02-27T21:50:47.498Z,55.75
2019-02-27T21:51:48.118Z,55.75
2019-02-27T21:52:47.573Z,55.84
2019-02-27T21:53:47.567Z,55.75
2019-02-27T21:54:47.573Z,55.75
2019-02-27T21:55:47.587Z,55.46
2019-02-27T21:56:49.173Z,55.75
2019-02-27T21:57:47.633Z,55.65
2019-02-27T21:58:47.659Z,55.75
2019-02-27T21:59:47.683Z,55.55
2019-02-27T22:00:48.112Z,55.84
2019-02-27T22:01:48.979Z,55.84
2019-02-27T22:02:47.733Z,56.20
2019-02-27T22:03:47.815Z,56.04
2019-02-27T22:04:47.762Z,55.82
2019-02-27T22:05:52.571Z,56.01
2019-02-27T22:06:47.816Z,56.87
2019-02-27T22:07:47.834Z,56.77
2019-02-27T22:08:47.834Z,56.77
2019-02-27T22:09:47.847Z,56.77
2019-02-27T22:10:53.105Z,56.58
2019-02-27T22:11:47.888Z,56.96
2019-02-27T22:12:47.910Z,56.96
2019-02-27T22:13:47.919Z,57.24
2019-02-27T22:14:48.575Z,57.63
2019-02-27T22:15:47.962Z,57.06
2019-02-27T22:16:47.978Z,57.15
2019-02-27T22:17:47.993Z,56.96
2019-02-27T22:18:48.011Z,56.80
2019-02-27T22:19:50.499Z,56.01
2019-02-27T22:20:48.063Z,56.38
2019-02-27T22:21:48.181Z,57.06
2019-02-27T22:22:48.092Z,57.15
2019-02-27T22:23:48.107Z,57.34
2019-02-27T22:24:48.123Z,57.72
2019-02-27T22:25:48.143Z,57.72
2019-02-27T22:26:48.426Z,58.46
2019-02-27T22:27:48.182Z,58.26
2019-02-27T22:28:48.200Z,58.29
2019-02-27T22:29:48.224Z,58.68
2019-02-27T22:30:48.298Z,58.01
2019-02-27T22:31:48.262Z,58.11
2019-02-27T22:32:48.838Z,57.63
2019-02-27T22:33:48.292Z,57.82
2019-02-27T22:34:48.305Z,58.20
2019-02-27T22:35:48.350Z,58.11
2019-02-27T22:36:48.347Z,58.07
2019-02-27T22:37:51.268Z,58.20
2019-02-27T22:38:48.380Z,57.92
2019-02-27T22:39:48.403Z,58.11
2019-02-27T22:40:48.419Z,57.92
2019-02-27T22:41:48.436Z,57.98
2019-02-27T22:42:49.339Z,58.07
2019-02-27T22:43:48.475Z,58.11
2019-02-27T22:44:48.497Z,58.26
2019-02-27T22:45:48.523Z,58.46
2019-02-27T22:46:48.647Z,58.36
2019-02-27T22:47:48.556Z,57.63
2019-02-27T22:48:48.572Z,57.98
2019-02-27T22:49:48.590Z,58.17
2019-02-27T22:50:48.602Z,58.46
2019-02-27T22:51:48.621Z,58.36
2019-02-27T22:52:54.212Z,58.26
2019-02-27T22:53:48.668Z,58.75
2019-02-27T22:54:48.673Z,58.94
2019-02-27T22:55:48.701Z,58.94
2019-02-27T22:56:51.381Z,59.51
2019-02-27T22:57:48.739Z,59.28
2019-02-27T22:58:51.416Z,59.79
2019-02-27T22:59:48.764Z,59.41
2019-02-27T23:00:48.784Z,59.22
2019-02-27T23:01:50.663Z,59.22
2019-02-27T23:02:48.825Z,59.70
2019-02-27T23:03:48.855Z,59.12
2019-02-27T23:04:48.856Z,59.41
2019-02-27T23:05:48.893Z,59.51
2019-02-27T23:06:48.895Z,58.94
2019-02-27T23:07:51.659Z,58.84
2019-02-27T23:08:48.933Z,59.12
2019-02-27T23:09:49.070Z,59.12
2019-02-27T23:10:48.972Z,58.84
2019-02-27T23:11:48.991Z,59.12
2019-02-27T23:12:49.006Z,59.22
2019-02-27T23:13:49.034Z,59.89
2019-02-27T23:14:50.260Z,59.89
2019-02-27T23:15:49.117Z,59.51
2019-02-27T23:16:49.080Z,59.31
2019-02-27T23:17:49.107Z,58.94
2019-02-27T23:18:49.232Z,59.31
2019-02-27T23:19:49.135Z,59.41
2019-02-27T23:20:49.147Z,59.31
2019-02-27T23:21:49.177Z,59.51
2019-02-27T23:22:49.202Z,60.14
2019-02-27T23:23:49.206Z,60.91
2019-02-27T23:24:49.225Z,60.52
2019-02-27T23:25:49.240Z,60.65
2019-02-27T23:26:54.149Z,60.24
2019-02-27T23:27:49.338Z,60.62
2019-02-27T23:28:49.290Z,60.72
2019-02-27T23:29:49.311Z,60.46
2019-02-27T23:30:49.382Z,60.27
2019-02-27T23:31:49.350Z,60.24
2019-02-27T23:32:49.529Z,60.43
2019-02-27T23:33:49.394Z,60.43
2019-02-27T23:34:49.415Z,60.43
2019-02-27T23:35:50.173Z,60.72
2019-02-27T23:36:49.437Z,60.91
2019-02-27T23:37:49.454Z,61.00
2019-02-27T23:38:49.490Z,61.00
2019-02-27T23:39:49.507Z,60.62
2019-02-27T23:40:50.144Z,60.43
2019-02-27T23:41:49.539Z,60.52
2019-02-27T23:42:49.546Z,60.91
2019-02-27T23:43:49.562Z,60.91
2019-02-27T23:44:49.576Z,61.48
2019-02-27T23:45:49.598Z,61.73
2019-02-27T23:46:51.734Z,61.86
2019-02-27T23:47:49.636Z,61.67
2019-02-27T23:48:49.646Z,61.48
2019-02-27T23:49:49.665Z,61.48
2019-02-27T23:50:49.705Z,61.45
2019-02-27T23:51:49.707Z,61.86
2019-02-27T23:52:49.726Z,61.67
2019-02-27T23:53:49.739Z,62.40
2019-02-27T23:54:49.762Z,63.26
2019-02-27T23:55:49.779Z,63.26
2019-02-27T23:56:51.779Z,62.88
2019-02-27T23:57:49.828Z,63.83
2019-02-27T23:58:49.829Z,64.31
2019-02-27T23:59:49.843Z,64.12
